»·PEaware :: N6182G KSBD-KBUR

N6182G :: KSBD-KBUR

FLIGHT INFORMATION

Flight Status: Arrived
Operator: Privately registered:
United States
More flights under this callsign
Pilot: Paul A. (20189)
Aircraft: CESSNA 182 SKYLANE
(C182)
More flights by this aircraft type
Origin: KSBD San Bernardino Intl
United States
Destination: KBUR Bob Hope-Burbank
United States
More flights between these airports :: More routes between these airports
Route: PDZ V186 VNY
File this flight plan on PilotEdge
Remarks:
Altitude:
(Current/Filed)
6,000ft
Speed:
(Current/Filed)
120kts
Departed: 25-Sep-18 05:46 PM
Arrived: 25-Sep-18 06:21 PM
Distance/Time
Traveled:
56nm/0:35
Distance/Time
To Go:
Arrived

Flight Plot

Page will automatically refresh every two minutes.


Map Options




Map Legend


Flown Route
Filed Route
Departure Airport
Arrival Airport
Navaid (VOR, NDB)
Fix

Horizontal Profiles

Position Reports

Time Latitude Longitude Heading Altitude Ground
Speed
25-Sep-18 17:34 34.101412 -117.225203 268 1122ft 0kts
25-Sep-18 17:35 34.101412 -117.225204 268 1122ft 0kts
25-Sep-18 17:36 34.101412 -117.225205 268 1122ft 0kts
25-Sep-18 17:37 34.101412 -117.225206 268 1122ft 0kts
25-Sep-18 17:38 34.101412 -117.225207 268 1122ft 0kts
25-Sep-18 17:39 34.101412 -117.225208 268 1122ft 0kts
25-Sep-18 17:40 34.101412 -117.225210 268 1122ft 0kts
25-Sep-18 17:41 34.101411 -117.225211 268 1122ft 0kts
25-Sep-18 17:42 34.101411 -117.225212 268 1122ft 0kts
25-Sep-18 17:43 34.101411 -117.225213 268 1122ft 0kts
25-Sep-18 17:44 34.101101 -117.224317 135 1122ft 8kts
25-Sep-18 17:45 34.100604 -117.223500 83 1122ft 4kts
25-Sep-18 17:46 34.101230 -117.221373 69 1122ft 9kts
25-Sep-18 17:47 34.100762 -117.219855 159 1122ft 4kts
25-Sep-18 17:48 34.098656 -117.223592 246 1150ft 62kts
25-Sep-18 17:49 34.091624 -117.244890 231 2068ft 75kts
25-Sep-18 17:50 34.078012 -117.266519 232 2984ft 86kts
25-Sep-18 17:51 34.061514 -117.292833 232 3875ft 106kts
25-Sep-18 17:52 34.043288 -117.321963 232 4780ft 110kts
25-Sep-18 17:53 34.025400 -117.352254 234 5662ft 109kts
25-Sep-18 17:54 34.006264 -117.385604 234 5998ft 141kts
25-Sep-18 17:55 33.983106 -117.425504 233 5992ft 146kts
25-Sep-18 17:56 33.958702 -117.463327 233 5982ft 139kts
25-Sep-18 17:57 33.935966 -117.500837 233 5987ft 137kts
25-Sep-18 17:58 33.922261 -117.541118 290 5996ft 136kts
25-Sep-18 17:59 33.937093 -117.583180 294 5997ft 136kts
25-Sep-18 18:00 33.952033 -117.625336 293 5997ft 137kts
25-Sep-18 18:01 33.966918 -117.667555 293 5998ft 137kts
25-Sep-18 18:02 33.981401 -117.708685 293 6000ft 137kts
25-Sep-18 18:03 33.996215 -117.750816 293 6009ft 136kts
25-Sep-18 18:04 34.009971 -117.793668 290 6009ft 137kts
25-Sep-18 18:05 34.023202 -117.836672 291 6008ft 137kts
25-Sep-18 18:06 34.036507 -117.879744 291 6006ft 137kts
25-Sep-18 18:07 34.049724 -117.922595 291 6002ft 137kts
25-Sep-18 18:08 34.063034 -117.965806 291 6001ft 137kts
25-Sep-18 18:09 34.076253 -118.008787 291 5999ft 137kts
25-Sep-18 18:10 34.089496 -118.051892 291 5999ft 137kts
25-Sep-18 18:11 34.102757 -118.095116 291 6000ft 137kts
25-Sep-18 18:12 34.115960 -118.138225 290 6000ft 137kts
25-Sep-18 18:13 34.128511 -118.180749 279 5994ft 138kts
25-Sep-18 18:14 34.130217 -118.226447 272 5310ft 134kts
25-Sep-18 18:15 34.131658 -118.266934 272 5017ft 125kts
25-Sep-18 18:16 34.136410 -118.312300 277 4648ft 140kts
25-Sep-18 18:17 34.146692 -118.354187 287 3696ft 114kts
25-Sep-18 18:18 34.156684 -118.387053 296 2593ft 100kts
25-Sep-18 18:19 34.169367 -118.414404 296 2318ft 93kts
25-Sep-18 18:20 34.191549 -118.430352 350 2002ft 95kts
25-Sep-18 18:21 34.199566 -118.408415 103 1457ft 80kts
25-Sep-18 18:22 34.198211 -118.382402 96 978ft 72kts
25-Sep-18 18:23 34.197809 -118.361673 89 724ft 15kts
25-Sep-18 18:24 34.196630 -118.360282 179 724ft 3kts
25-Sep-18 18:25 34.196002 -118.360233 160 724ft 0kts
25-Sep-18 18:26 34.196001 -118.360233 160 724ft 0kts
25-Sep-18 18:27 34.196000 -118.360232 160 724ft 0kts
25-Sep-18 18:28 34.195999 -118.360232 160 724ft 0kts
25-Sep-18 18:29 34.195998 -118.360231 160 724ft 0kts

Navigation Log

Ident Type
Flight plan parsing failed, navigation log unavailable